sensor_id;sensor_type;location;lat;lon;timestamp;P1;durP1;ratioP1;P2;durP2;ratioP2
75937;SDS011;64615;32.062;34.834;2023-06-24T00:01:26;5.15;;;2.13;;
75937;SDS011;64615;32.062;34.834;2023-06-24T00:03:51;4.65;;;2.38;;
75937;SDS011;64615;32.062;34.834;2023-06-24T00:06:21;5.32;;;2.50;;
75937;SDS011;64615;32.062;34.834;2023-06-24T00:08:51;5.72;;;2.60;;
75937;SDS011;64615;32.062;34.834;2023-06-24T00:11:17;4.97;;;2.75;;
75937;SDS011;64615;32.062;34.834;2023-06-24T00:13:43;4.93;;;2.30;;
75937;SDS011;64615;32.062;34.834;2023-06-24T00:16:10;5.47;;;2.33;;
75937;SDS011;64615;32.062;34.834;2023-06-24T00:18:36;4.22;;;2.22;;
75937;SDS011;64615;32.062;34.834;2023-06-24T00:21:06;4.85;;;2.35;;
75937;SDS011;64615;32.062;34.834;2023-06-24T00:23:31;6.85;;;2.80;;
75937;SDS011;64615;32.062;34.834;2023-06-24T00:25:59;6.18;;;2.60;;
75937;SDS011;64615;32.062;34.834;2023-06-24T00:28:26;4.20;;;2.30;;
75937;SDS011;64615;32.062;34.834;2023-06-24T00:30:52;7.00;;;2.85;;
75937;SDS011;64615;32.062;34.834;2023-06-24T00:33:17;5.40;;;2.72;;
75937;SDS011;64615;32.062;34.834;2023-06-24T00:35:44;4.70;;;2.75;;
75937;SDS011;64615;32.062;34.834;2023-06-24T00:38:11;4.25;;;2.47;;
75937;SDS011;64615;32.062;34.834;2023-06-24T00:40:37;5.32;;;2.65;;
75937;SDS011;64615;32.062;34.834;2023-06-24T00:43:04;5.68;;;2.72;;
75937;SDS011;64615;32.062;34.834;2023-06-24T00:45:31;5.18;;;2.30;;
75937;SDS011;64615;32.062;34.834;2023-06-24T00:47:59;5.10;;;2.60;;
75937;SDS011;64615;32.062;34.834;2023-06-24T00:50:26;4.82;;;2.60;;
75937;SDS011;64615;32.062;34.834;2023-06-24T00:52:52;5.60;;;2.65;;
75937;SDS011;64615;32.062;34.834;2023-06-24T00:55:17;4.97;;;2.50;;
75937;SDS011;64615;32.062;34.834;2023-06-24T00:57:47;5.45;;;2.80;;
75937;SDS011;64615;32.062;34.834;2023-06-24T01:00:20;4.70;;;2.55;;
75937;SDS011;64615;32.062;34.834;2023-06-24T01:02:47;5.18;;;2.85;;
75937;SDS011;64615;32.062;34.834;2023-06-24T01:05:14;6.20;;;2.80;;
75937;SDS011;64615;32.062;34.834;2023-06-24T01:07:41;5.22;;;2.88;;
75937;SDS011;64615;32.062;34.834;2023-06-24T01:10:08;7.30;;;2.72;;
75937;SDS011;64615;32.062;34.834;2023-06-24T01:12:38;6.13;;;2.90;;
75937;SDS011;64615;32.062;34.834;2023-06-24T01:15:05;5.63;;;3.00;;
75937;SDS011;64615;32.062;34.834;2023-06-24T01:20:02;6.05;;;3.03;;
75937;SDS011;64615;32.062;34.834;2023-06-24T01:28:16;5.40;;;2.83;;
75937;SDS011;64615;32.062;34.834;2023-06-24T01:36:25;5.28;;;3.00;;
75937;SDS011;64615;32.062;34.834;2023-06-24T01:38:58;5.88;;;3.03;;
75937;SDS011;64615;32.062;34.834;2023-06-24T01:41:31;5.43;;;3.00;;
75937;SDS011;64615;32.062;34.834;2023-06-24T01:43:59;7.15;;;3.22;;
75937;SDS011;64615;32.062;34.834;2023-06-24T01:46:27;5.15;;;2.92;;
75937;SDS011;64615;32.062;34.834;2023-06-24T01:48:55;6.15;;;3.45;;
75937;SDS011;64615;32.062;34.834;2023-06-24T01:51:23;5.03;;;3.00;;
75937;SDS011;64615;32.062;34.834;2023-06-24T01:53:54;7.78;;;3.58;;
75937;SDS011;64615;32.062;34.834;2023-06-24T01:56:25;6.53;;;3.38;;
75937;SDS011;64615;32.062;34.834;2023-06-24T01:58:52;7.05;;;3.30;;
75937;SDS011;64615;32.062;34.834;2023-06-24T02:01:19;6.15;;;3.22;;
75937;SDS011;64615;32.062;34.834;2023-06-24T02:03:46;5.88;;;3.20;;
75937;SDS011;64615;32.062;34.834;2023-06-24T02:06:14;6.68;;;3.47;;
75937;SDS011;64615;32.062;34.834;2023-06-24T02:08:43;7.38;;;3.40;;
75937;SDS011;64615;32.062;34.834;2023-06-24T02:11:09;5.88;;;3.38;;
75937;SDS011;64615;32.062;34.834;2023-06-24T02:13:37;6.97;;;3.95;;
75937;SDS011;64615;32.062;34.834;2023-06-24T02:16:05;6.47;;;3.33;;
75937;SDS011;64615;32.062;34.834;2023-06-24T02:18:37;6.13;;;3.17;;
75937;SDS011;64615;32.062;34.834;2023-06-24T02:21:07;7.15;;;3.60;;
75937;SDS011;64615;32.062;34.834;2023-06-24T02:23:35;6.57;;;3.38;;
75937;SDS011;64615;32.062;34.834;2023-06-24T02:26:02;5.53;;;3.28;;
75937;SDS011;64615;32.062;34.834;2023-06-24T02:28:31;8.50;;;3.60;;
75937;SDS011;64615;32.062;34.834;2023-06-24T02:30:58;5.75;;;3.47;;
75937;SDS011;64615;32.062;34.834;2023-06-24T02:33:25;6.70;;;3.70;;
75937;SDS011;64615;32.062;34.834;2023-06-24T02:35:51;6.13;;;3.42;;
75937;SDS011;64615;32.062;34.834;2023-06-24T02:38:18;6.35;;;3.17;;
75937;SDS011;64615;32.062;34.834;2023-06-24T02:40:45;5.95;;;3.33;;
75937;SDS011;64615;32.062;34.834;2023-06-24T02:43:10;5.57;;;3.15;;
75937;SDS011;64615;32.062;34.834;2023-06-24T02:45:36;5.40;;;3.25;;
75937;SDS011;64615;32.062;34.834;2023-06-24T02:48:03;5.32;;;2.88;;
75937;SDS011;64615;32.062;34.834;2023-06-24T02:50:31;5.72;;;3.20;;
75937;SDS011;64615;32.062;34.834;2023-06-24T02:52:58;5.53;;;3.20;;
75937;SDS011;64615;32.062;34.834;2023-06-24T02:55:25;5.30;;;2.90;;
75937;SDS011;64615;32.062;34.834;2023-06-24T02:57:52;6.60;;;3.53;;
75937;SDS011;64615;32.062;34.834;2023-06-24T03:00:18;5.97;;;3.47;;
75937;SDS011;64615;32.062;34.834;2023-06-24T03:02:45;6.20;;;3.20;;
75937;SDS011;64615;32.062;34.834;2023-06-24T03:05:14;6.32;;;3.28;;
75937;SDS011;64615;32.062;34.834;2023-06-24T03:07:41;6.47;;;3.35;;
75937;SDS011;64615;32.062;34.834;2023-06-24T03:10:08;5.28;;;3.08;;
75937;SDS011;64615;32.062;34.834;2023-06-24T03:12:35;6.90;;;3.50;;
75937;SDS011;64615;32.062;34.834;2023-06-24T03:15:01;6.68;;;3.33;;
75937;SDS011;64615;32.062;34.834;2023-06-24T03:17:27;6.40;;;3.10;;
75937;SDS011;64615;32.062;34.834;2023-06-24T03:19:53;5.07;;;3.08;;
75937;SDS011;64615;32.062;34.834;2023-06-24T03:22:18;6.65;;;3.20;;
75937;SDS011;64615;32.062;34.834;2023-06-24T03:24:44;7.47;;;3.35;;
75937;SDS011;64615;32.062;34.834;2023-06-24T03:27:10;9.30;;;3.50;;
75937;SDS011;64615;32.062;34.834;2023-06-24T03:29:36;8.15;;;3.33;;
75937;SDS011;64615;32.062;34.834;2023-06-24T03:32:01;14.82;;;4.00;;
75937;SDS011;64615;32.062;34.834;2023-06-24T03:34:27;9.43;;;3.67;;
75937;SDS011;64615;32.062;34.834;2023-06-24T03:36:53;12.52;;;4.05;;
75937;SDS011;64615;32.062;34.834;2023-06-24T03:39:19;11.32;;;4.35;;
75937;SDS011;64615;32.062;34.834;2023-06-24T03:41:45;23.05;;;4.57;;
75937;SDS011;64615;32.062;34.834;2023-06-24T03:44:11;12.85;;;4.50;;
75937;SDS011;64615;32.062;34.834;2023-06-24T03:46:37;14.63;;;4.05;;
75937;SDS011;64615;32.062;34.834;2023-06-24T03:49:03;10.30;;;4.47;;
75937;SDS011;64615;32.062;34.834;2023-06-24T03:51:28;14.95;;;5.03;;
75937;SDS011;64615;32.062;34.834;2023-06-24T03:53:54;14.27;;;5.38;;
75937;SDS011;64615;32.062;34.834;2023-06-24T03:56:20;15.70;;;5.47;;
75937;SDS011;64615;32.062;34.834;2023-06-24T03:58:45;17.40;;;5.38;;
75937;SDS011;64615;32.062;34.834;2023-06-24T04:01:11;12.60;;;5.43;;
75937;SDS011;64615;32.062;34.834;2023-06-24T04:03:37;31.13;;;7.10;;
75937;SDS011;64615;32.062;34.834;2023-06-24T04:06:02;36.75;;;8.50;;
75937;SDS011;64615;32.062;34.834;2023-06-24T04:08:28;36.42;;;8.35;;
75937;SDS011;64615;32.062;34.834;2023-06-24T04:13:22;24.25;;;7.07;;
75937;SDS011;64615;32.062;34.834;2023-06-24T04:15:47;20.83;;;6.85;;
75937;SDS011;64615;32.062;34.834;2023-06-24T04:18:13;29.77;;;7.28;;
75937;SDS011;64615;32.062;34.834;2023-06-24T04:20:39;27.40;;;8.27;;
75937;SDS011;64615;32.062;34.834;2023-06-24T04:23:05;32.40;;;8.75;;
75937;SDS011;64615;32.062;34.834;2023-06-24T04:25:31;38.65;;;7.97;;
75937;SDS011;64615;32.062;34.834;2023-06-24T04:27:56;31.73;;;8.10;;
75937;SDS011;64615;32.062;34.834;2023-06-24T04:30:22;29.33;;;7.93;;
75937;SDS011;64615;32.062;34.834;2023-06-24T04:32:48;26.55;;;8.68;;
75937;SDS011;64615;32.062;34.834;2023-06-24T04:35:13;26.25;;;8.13;;
75937;SDS011;64615;32.062;34.834;2023-06-24T04:37:39;26.98;;;7.63;;
75937;SDS011;64615;32.062;34.834;2023-06-24T04:40:05;23.38;;;8.60;;
75937;SDS011;64615;32.062;34.834;2023-06-24T04:42:31;18.02;;;7.45;;
75937;SDS011;64615;32.062;34.834;2023-06-24T04:44:56;17.23;;;7.78;;
75937;SDS011;64615;32.062;34.834;2023-06-24T04:47:22;20.30;;;8.50;;
75937;SDS011;64615;32.062;34.834;2023-06-24T04:49:48;18.30;;;7.47;;
75937;SDS011;64615;32.062;34.834;2023-06-24T04:52:13;17.02;;;7.63;;
75937;SDS011;64615;32.062;34.834;2023-06-24T04:54:39;16.55;;;7.40;;
75937;SDS011;64615;32.062;34.834;2023-06-24T04:57:07;21.42;;;7.68;;
75937;SDS011;64615;32.062;34.834;2023-06-24T04:59:34;22.63;;;8.63;;
75937;SDS011;64615;32.062;34.834;2023-06-24T05:02:00;22.00;;;7.90;;
75937;SDS011;64615;32.062;34.834;2023-06-24T05:04:25;22.60;;;7.63;;
75937;SDS011;64615;32.062;34.834;2023-06-24T05:06:52;19.25;;;7.95;;
75937;SDS011;64615;32.062;34.834;2023-06-24T05:09:17;16.60;;;7.82;;
75937;SDS011;64615;32.062;34.834;2023-06-24T05:11:43;25.13;;;8.23;;
75937;SDS011;64615;32.062;34.834;2023-06-24T05:14:09;24.63;;;7.78;;
75937;SDS011;64615;32.062;34.834;2023-06-24T05:16:35;24.05;;;9.27;;
75937;SDS011;64615;32.062;34.834;2023-06-24T05:19:01;22.70;;;7.97;;
75937;SDS011;64615;32.062;34.834;2023-06-24T05:21:26;18.40;;;7.32;;
75937;SDS011;64615;32.062;34.834;2023-06-24T05:23:52;22.00;;;8.18;;
75937;SDS011;64615;32.062;34.834;2023-06-24T05:26:17;23.13;;;7.78;;
75937;SDS011;64615;32.062;34.834;2023-06-24T05:28:43;20.80;;;7.43;;
75937;SDS011;64615;32.062;34.834;2023-06-24T05:31:09;17.15;;;7.05;;
75937;SDS011;64615;32.062;34.834;2023-06-24T05:33:34;21.88;;;7.20;;
75937;SDS011;64615;32.062;34.834;2023-06-24T05:36:00;18.30;;;6.70;;
75937;SDS011;64615;32.062;34.834;2023-06-24T05:38:26;16.48;;;6.78;;
75937;SDS011;64615;32.062;34.834;2023-06-24T05:40:51;14.88;;;6.55;;
75937;SDS011;64615;32.062;34.834;2023-06-24T05:43:17;20.75;;;6.57;;
75937;SDS011;64615;32.062;34.834;2023-06-24T05:45:42;17.20;;;6.28;;
75937;SDS011;64615;32.062;34.834;2023-06-24T05:48:08;11.73;;;5.88;;
75937;SDS011;64615;32.062;34.834;2023-06-24T05:50:34;19.20;;;6.78;;
75937;SDS011;64615;32.062;34.834;2023-06-24T05:52:59;15.95;;;6.07;;
75937;SDS011;64615;32.062;34.834;2023-06-24T05:55:25;16.52;;;5.78;;
75937;SDS011;64615;32.062;34.834;2023-06-24T05:57:51;19.17;;;5.60;;
75937;SDS011;64615;32.062;34.834;2023-06-24T06:00:17;17.77;;;5.32;;
75937;SDS011;64615;32.062;34.834;2023-06-24T06:02:43;18.00;;;5.15;;
75937;SDS011;64615;32.062;34.834;2023-06-24T06:05:09;13.40;;;5.47;;
75937;SDS011;64615;32.062;34.834;2023-06-24T06:07:34;10.15;;;4.90;;
75937;SDS011;64615;32.062;34.834;2023-06-24T06:10:02;12.40;;;5.13;;
75937;SDS011;64615;32.062;34.834;2023-06-24T06:12:28;9.43;;;4.88;;
75937;SDS011;64615;32.062;34.834;2023-06-24T06:14:54;9.75;;;4.90;;
75937;SDS011;64615;32.062;34.834;2023-06-24T06:17:19;11.00;;;5.07;;
75937;SDS011;64615;32.062;34.834;2023-06-24T06:19:45;12.00;;;4.75;;
75937;SDS011;64615;32.062;34.834;2023-06-24T06:22:12;10.48;;;4.88;;
75937;SDS011;64615;32.062;34.834;2023-06-24T06:24:38;13.55;;;5.95;;
75937;SDS011;64615;32.062;34.834;2023-06-24T06:27:04;13.18;;;5.47;;
75937;SDS011;64615;32.062;34.834;2023-06-24T06:29:34;17.50;;;5.45;;
75937;SDS011;64615;32.062;34.834;2023-06-24T06:31:59;11.13;;;5.07;;
75937;SDS011;64615;32.062;34.834;2023-06-24T06:34:25;11.63;;;5.60;;
75937;SDS011;64615;32.062;34.834;2023-06-24T06:36:51;12.25;;;4.95;;
75937;SDS011;64615;32.062;34.834;2023-06-24T06:39:16;12.32;;;5.15;;
75937;SDS011;64615;32.062;34.834;2023-06-24T06:41:42;10.48;;;5.13;;
75937;SDS011;64615;32.062;34.834;2023-06-24T06:44:08;17.25;;;6.63;;
75937;SDS011;64615;32.062;34.834;2023-06-24T06:46:33;22.58;;;9.85;;
75937;SDS011;64615;32.062;34.834;2023-06-24T06:48:59;16.58;;;7.80;;
75937;SDS011;64615;32.062;34.834;2023-06-24T06:51:25;16.40;;;7.57;;
75937;SDS011;64615;32.062;34.834;2023-06-24T06:53:51;16.50;;;6.70;;
75937;SDS011;64615;32.062;34.834;2023-06-24T06:56:17;14.93;;;6.57;;
75937;SDS011;64615;32.062;34.834;2023-06-24T06:58:44;20.08;;;7.03;;
75937;SDS011;64615;32.062;34.834;2023-06-24T07:01:09;22.00;;;6.40;;
75937;SDS011;64615;32.062;34.834;2023-06-24T07:03:35;14.05;;;5.90;;
75937;SDS011;64615;32.062;34.834;2023-06-24T07:06:00;16.13;;;6.00;;
75937;SDS011;64615;32.062;34.834;2023-06-24T07:08:26;17.35;;;5.50;;
75937;SDS011;64615;32.062;34.834;2023-06-24T07:10:52;11.77;;;4.82;;
75937;SDS011;64615;32.062;34.834;2023-06-24T07:13:18;10.70;;;4.32;;
75937;SDS011;64615;32.062;34.834;2023-06-24T07:15:43;9.35;;;3.83;;
75937;SDS011;64615;32.062;34.834;2023-06-24T07:18:09;11.20;;;3.35;;
75937;SDS011;64615;32.062;34.834;2023-06-24T07:20:34;13.82;;;3.53;;
75937;SDS011;64615;32.062;34.834;2023-06-24T07:23:00;10.52;;;3.28;;
75937;SDS011;64615;32.062;34.834;2023-06-24T07:25:26;17.63;;;3.40;;
75937;SDS011;64615;32.062;34.834;2023-06-24T07:27:53;12.32;;;3.20;;
75937;SDS011;64615;32.062;34.834;2023-06-24T07:30:19;11.50;;;3.40;;
75937;SDS011;64615;32.062;34.834;2023-06-24T07:32:44;13.52;;;3.63;;
75937;SDS011;64615;32.062;34.834;2023-06-24T07:35:10;12.38;;;3.20;;
75937;SDS011;64615;32.062;34.834;2023-06-24T07:37:36;6.60;;;3.00;;
75937;SDS011;64615;32.062;34.834;2023-06-24T07:40:02;7.93;;;3.22;;
75937;SDS011;64615;32.062;34.834;2023-06-24T07:42:28;7.32;;;2.90;;
75937;SDS011;64615;32.062;34.834;2023-06-24T07:44:54;6.45;;;2.83;;
75937;SDS011;64615;32.062;34.834;2023-06-24T07:47:20;7.20;;;2.92;;
75937;SDS011;64615;32.062;34.834;2023-06-24T07:49:45;5.95;;;2.75;;
75937;SDS011;64615;32.062;34.834;2023-06-24T07:52:11;5.00;;;2.80;;
75937;SDS011;64615;32.062;34.834;2023-06-24T07:54:36;4.60;;;2.53;;
75937;SDS011;64615;32.062;34.834;2023-06-24T07:57:02;5.82;;;2.78;;
75937;SDS011;64615;32.062;34.834;2023-06-24T07:59:28;5.72;;;2.80;;
75937;SDS011;64615;32.062;34.834;2023-06-24T08:01:54;5.05;;;2.50;;
75937;SDS011;64615;32.062;34.834;2023-06-24T08:04:20;4.70;;;2.50;;
75937;SDS011;64615;32.062;34.834;2023-06-24T08:06:45;8.38;;;2.88;;
75937;SDS011;64615;32.062;34.834;2023-06-24T08:09:11;6.95;;;2.50;;
75937;SDS011;64615;32.062;34.834;2023-06-24T08:11:37;8.13;;;3.00;;
75937;SDS011;64615;32.062;34.834;2023-06-24T08:14:02;13.20;;;3.15;;
75937;SDS011;64615;32.062;34.834;2023-06-24T08:16:29;19.30;;;3.25;;
75937;SDS011;64615;32.062;34.834;2023-06-24T08:18:55;12.38;;;2.95;;
75937;SDS011;64615;32.062;34.834;2023-06-24T08:21:20;14.52;;;3.05;;
75937;SDS011;64615;32.062;34.834;2023-06-24T08:23:46;6.88;;;2.72;;
75937;SDS011;64615;32.062;34.834;2023-06-24T08:26:12;8.02;;;3.00;;
75937;SDS011;64615;32.062;34.834;2023-06-24T08:28:37;6.82;;;3.08;;
75937;SDS011;64615;32.062;34.834;2023-06-24T08:31:03;9.65;;;2.75;;
75937;SDS011;64615;32.062;34.834;2023-06-24T08:33:29;5.95;;;2.90;;
75937;SDS011;64615;32.062;34.834;2023-06-24T08:35:54;11.05;;;3.05;;
75937;SDS011;64615;32.062;34.834;2023-06-24T08:38:20;10.23;;;3.35;;
75937;SDS011;64615;32.062;34.834;2023-06-24T08:40:46;9.43;;;3.40;;
75937;SDS011;64615;32.062;34.834;2023-06-24T08:43:12;16.55;;;3.30;;
75937;SDS011;64615;32.062;34.834;2023-06-24T08:45:38;17.67;;;3.58;;
75937;SDS011;64615;32.062;34.834;2023-06-24T08:48:03;11.52;;;3.42;;
75937;SDS011;64615;32.062;34.834;2023-06-24T08:50:36;8.98;;;3.20;;
75937;SDS011;64615;32.062;34.834;2023-06-24T08:53:08;10.80;;;2.63;;
75937;SDS011;64615;32.062;34.834;2023-06-24T08:55:36;12.07;;;3.38;;
75937;SDS011;64615;32.062;34.834;2023-06-24T08:58:08;13.45;;;3.53;;
75937;SDS011;64615;32.062;34.834;2023-06-24T09:00:34;17.35;;;3.42;;
75937;SDS011;64615;32.062;34.834;2023-06-24T09:03:00;18.17;;;3.70;;
75937;SDS011;64615;32.062;34.834;2023-06-24T09:05:26;11.65;;;3.17;;
75937;SDS011;64615;32.062;34.834;2023-06-24T09:07:51;21.83;;;3.60;;
75937;SDS011;64615;32.062;34.834;2023-06-24T09:10:31;13.00;;;3.13;;
75937;SDS011;64615;32.062;34.834;2023-06-24T09:12:57;17.23;;;3.08;;
75937;SDS011;64615;32.062;34.834;2023-06-24T09:15:23;14.57;;;3.42;;
75937;SDS011;64615;32.062;34.834;2023-06-24T09:17:49;17.77;;;4.43;;
75937;SDS011;64615;32.062;34.834;2023-06-24T09:20:15;10.10;;;3.63;;
75937;SDS011;64615;32.062;34.834;2023-06-24T09:22:45;12.60;;;3.30;;
75937;SDS011;64615;32.062;34.834;2023-06-24T09:25:15;7.80;;;3.20;;
75937;SDS011;64615;32.062;34.834;2023-06-24T09:27:47;7.72;;;3.30;;
75937;SDS011;64615;32.062;34.834;2023-06-24T09:30:20;6.68;;;3.13;;
75937;SDS011;64615;32.062;34.834;2023-06-24T09:32:47;6.95;;;3.25;;
75937;SDS011;64615;32.062;34.834;2023-06-24T09:35:13;5.13;;;3.13;;
75937;SDS011;64615;32.062;34.834;2023-06-24T09:37:41;9.35;;;3.38;;
75937;SDS011;64615;32.062;34.834;2023-06-24T09:40:07;5.80;;;2.70;;
75937;SDS011;64615;32.062;34.834;2023-06-24T09:42:35;8.00;;;2.80;;
75937;SDS011;64615;32.062;34.834;2023-06-24T09:45:04;5.03;;;2.55;;
75937;SDS011;64615;32.062;34.834;2023-06-24T09:47:31;4.75;;;2.47;;
75937;SDS011;64615;32.062;34.834;2023-06-24T09:49:56;7.97;;;2.60;;
75937;SDS011;64615;32.062;34.834;2023-06-24T09:52:22;5.85;;;2.70;;
75937;SDS011;64615;32.062;34.834;2023-06-24T09:54:50;8.40;;;2.90;;
75937;SDS011;64615;32.062;34.834;2023-06-24T09:57:18;7.53;;;2.65;;
75937;SDS011;64615;32.062;34.834;2023-06-24T09:59:48;5.32;;;2.58;;
75937;SDS011;64615;32.062;34.834;2023-06-24T10:02:15;6.32;;;2.72;;
75937;SDS011;64615;32.062;34.834;2023-06-24T10:04:41;4.40;;;2.47;;
75937;SDS011;64615;32.062;34.834;2023-06-24T10:07:08;4.28;;;2.30;;
75937;SDS011;64615;32.062;34.834;2023-06-24T10:09:34;5.65;;;2.72;;
75937;SDS011;64615;32.062;34.834;2023-06-24T10:12:00;5.28;;;2.30;;
75937;SDS011;64615;32.062;34.834;2023-06-24T10:14:26;4.38;;;2.40;;
75937;SDS011;64615;32.062;34.834;2023-06-24T10:16:51;4.75;;;2.20;;
75937;SDS011;64615;32.062;34.834;2023-06-24T10:19:27;4.78;;;2.40;;
75937;SDS011;64615;32.062;34.834;2023-06-24T10:21:53;3.75;;;2.00;;
75937;SDS011;64615;32.062;34.834;2023-06-24T10:24:35;4.15;;;2.08;;
75937;SDS011;64615;32.062;34.834;2023-06-24T10:27:17;4.68;;;2.50;;
75937;SDS011;64615;32.062;34.834;2023-06-24T10:29:47;4.90;;;2.42;;
75937;SDS011;64615;32.062;34.834;2023-06-24T10:32:17;4.25;;;2.33;;
75937;SDS011;64615;32.062;34.834;2023-06-24T10:34:44;3.97;;;2.30;;
75937;SDS011;64615;32.062;34.834;2023-06-24T10:37:12;5.57;;;2.28;;
75937;SDS011;64615;32.062;34.834;2023-06-24T10:39:51;3.85;;;2.00;;
75937;SDS011;64615;32.062;34.834;2023-06-24T10:47:36;5.63;;;2.40;;
75937;SDS011;64615;32.062;34.834;2023-06-24T10:50:02;4.88;;;2.13;;
75937;SDS011;64615;32.062;34.834;2023-06-24T10:52:28;3.92;;;1.92;;
75937;SDS011;64615;32.062;34.834;2023-06-24T10:54:56;4.88;;;2.20;;
75937;SDS011;64615;32.062;34.834;2023-06-24T10:57:26;4.75;;;2.05;;
75937;SDS011;64615;32.062;34.834;2023-06-24T10:59:53;8.68;;;2.30;;
75937;SDS011;64615;32.062;34.834;2023-06-24T11:02:24;4.95;;;2.40;;
75937;SDS011;64615;32.062;34.834;2023-06-24T11:04:51;5.75;;;2.20;;
75937;SDS011;64615;32.062;34.834;2023-06-24T11:07:18;5.22;;;2.28;;
75937;SDS011;64615;32.062;34.834;2023-06-24T11:09:50;5.97;;;2.15;;
75937;SDS011;64615;32.062;34.834;2023-06-24T11:12:19;7.70;;;2.25;;
75937;SDS011;64615;32.062;34.834;2023-06-24T11:14:48;8.07;;;2.30;;
75937;SDS011;64615;32.062;34.834;2023-06-24T11:17:14;8.75;;;2.50;;
75937;SDS011;64615;32.062;34.834;2023-06-24T11:19:39;4.82;;;2.13;;
75937;SDS011;64615;32.062;34.834;2023-06-24T11:22:09;7.25;;;2.17;;
75937;SDS011;64615;32.062;34.834;2023-06-24T11:24:34;7.22;;;2.38;;
75937;SDS011;64615;32.062;34.834;2023-06-24T11:27:01;7.50;;;2.63;;
75937;SDS011;64615;32.062;34.834;2023-06-24T11:29:30;9.48;;;2.55;;
75937;SDS011;64615;32.062;34.834;2023-06-24T11:31:57;6.97;;;2.38;;
75937;SDS011;64615;32.062;34.834;2023-06-24T11:34:23;6.15;;;2.20;;
75937;SDS011;64615;32.062;34.834;2023-06-24T11:36:49;15.40;;;2.40;;
75937;SDS011;64615;32.062;34.834;2023-06-24T11:39:21;5.93;;;2.60;;
75937;SDS011;64615;32.062;34.834;2023-06-24T11:41:48;5.65;;;2.38;;
75937;SDS011;64615;32.062;34.834;2023-06-24T11:44:14;5.03;;;2.40;;
75937;SDS011;64615;32.062;34.834;2023-06-24T11:46:39;5.63;;;2.60;;
75937;SDS011;64615;32.062;34.834;2023-06-24T11:49:05;6.35;;;2.60;;
75937;SDS011;64615;32.062;34.834;2023-06-24T11:51:32;8.35;;;2.70;;
75937;SDS011;64615;32.062;34.834;2023-06-24T11:54:02;8.48;;;2.58;;
75937;SDS011;64615;32.062;34.834;2023-06-24T11:56:35;6.60;;;2.65;;
75937;SDS011;64615;32.062;34.834;2023-06-24T11:59:15;9.50;;;2.78;;
75937;SDS011;64615;32.062;34.834;2023-06-24T12:01:52;6.68;;;2.70;;
75937;SDS011;64615;32.062;34.834;2023-06-24T12:04:19;7.05;;;2.78;;
75937;SDS011;64615;32.062;34.834;2023-06-24T12:06:45;5.30;;;2.90;;
75937;SDS011;64615;32.062;34.834;2023-06-24T12:09:11;8.77;;;3.00;;
75937;SDS011;64615;32.062;34.834;2023-06-24T12:11:37;5.07;;;2.63;;
75937;SDS011;64615;32.062;34.834;2023-06-24T12:14:03;6.88;;;2.53;;
75937;SDS011;64615;32.062;34.834;2023-06-24T12:16:30;6.15;;;2.80;;
75937;SDS011;64615;32.062;34.834;2023-06-24T12:18:56;5.22;;;2.40;;
75937;SDS011;64615;32.062;34.834;2023-06-24T12:21:22;5.93;;;2.88;;
75937;SDS011;64615;32.062;34.834;2023-06-24T12:23:47;14.55;;;3.33;;
75937;SDS011;64615;32.062;34.834;2023-06-24T12:26:13;8.80;;;3.10;;
75937;SDS011;64615;32.062;34.834;2023-06-24T12:28:39;9.38;;;3.22;;
75937;SDS011;64615;32.062;34.834;2023-06-24T12:31:05;14.63;;;3.40;;
75937;SDS011;64615;32.062;34.834;2023-06-24T12:33:30;18.80;;;2.97;;
75937;SDS011;64615;32.062;34.834;2023-06-24T12:35:56;7.55;;;3.08;;
75937;SDS011;64615;32.062;34.834;2023-06-24T12:38:22;9.35;;;3.35;;
75937;SDS011;64615;32.062;34.834;2023-06-24T12:40:48;19.52;;;3.95;;
75937;SDS011;64615;32.062;34.834;2023-06-24T12:43:13;20.85;;;3.47;;
75937;SDS011;64615;32.062;34.834;2023-06-24T12:45:42;17.05;;;3.13;;
75937;SDS011;64615;32.062;34.834;2023-06-24T12:48:09;12.07;;;2.97;;
75937;SDS011;64615;32.062;34.834;2023-06-24T12:50:35;14.68;;;4.15;;
75937;SDS011;64615;32.062;34.834;2023-06-24T12:53:01;14.20;;;3.20;;
75937;SDS011;64615;32.062;34.834;2023-06-24T12:55:28;14.30;;;3.50;;
75937;SDS011;64615;32.062;34.834;2023-06-24T12:57:54;23.85;;;3.10;;
75937;SDS011;64615;32.062;34.834;2023-06-24T13:00:20;12.32;;;3.05;;
75937;SDS011;64615;32.062;34.834;2023-06-24T13:02:47;20.15;;;3.78;;
75937;SDS011;64615;32.062;34.834;2023-06-24T13:05:13;12.80;;;3.40;;
75937;SDS011;64615;32.062;34.834;2023-06-24T13:07:39;11.40;;;3.03;;
75937;SDS011;64615;32.062;34.834;2023-06-24T13:10:04;18.35;;;4.47;;
75937;SDS011;64615;32.062;34.834;2023-06-24T13:12:31;18.35;;;4.40;;
75937;SDS011;64615;32.062;34.834;2023-06-24T13:14:57;21.48;;;3.70;;
75937;SDS011;64615;32.062;34.834;2023-06-24T13:17:23;13.07;;;3.50;;
75937;SDS011;64615;32.062;34.834;2023-06-24T13:19:49;16.25;;;3.22;;
75937;SDS011;64615;32.062;34.834;2023-06-24T13:22:15;18.63;;;3.42;;
75937;SDS011;64615;32.062;34.834;2023-06-24T13:24:41;9.85;;;3.35;;
75937;SDS011;64615;32.062;34.834;2023-06-24T13:27:07;12.10;;;3.35;;
75937;SDS011;64615;32.062;34.834;2023-06-24T13:29:33;10.57;;;3.30;;
75937;SDS011;64615;32.062;34.834;2023-06-24T13:31:58;13.10;;;3.25;;
75937;SDS011;64615;32.062;34.834;2023-06-24T13:34:24;6.28;;;3.50;;
75937;SDS011;64615;32.062;34.834;2023-06-24T13:36:50;9.02;;;3.00;;
75937;SDS011;64615;32.062;34.834;2023-06-24T13:39:15;8.50;;;3.30;;
75937;SDS011;64615;32.062;34.834;2023-06-24T13:41:44;7.72;;;3.35;;
75937;SDS011;64615;32.062;34.834;2023-06-24T13:44:10;8.50;;;3.33;;
75937;SDS011;64615;32.062;34.834;2023-06-24T13:46:36;7.75;;;3.28;;
75937;SDS011;64615;32.062;34.834;2023-06-24T13:49:02;10.00;;;3.50;;
75937;SDS011;64615;32.062;34.834;2023-06-24T13:51:27;10.07;;;3.10;;
75937;SDS011;64615;32.062;34.834;2023-06-24T13:53:54;7.45;;;3.03;;
75937;SDS011;64615;32.062;34.834;2023-06-24T13:56:20;6.88;;;3.20;;
75937;SDS011;64615;32.062;34.834;2023-06-24T13:58:48;6.70;;;3.22;;
75937;SDS011;64615;32.062;34.834;2023-06-24T14:01:15;6.38;;;3.10;;
75937;SDS011;64615;32.062;34.834;2023-06-24T14:03:41;7.22;;;3.10;;
75937;SDS011;64615;32.062;34.834;2023-06-24T14:06:07;8.25;;;3.22;;
75937;SDS011;64615;32.062;34.834;2023-06-24T14:08:33;5.88;;;2.72;;
75937;SDS011;64615;32.062;34.834;2023-06-24T14:10:59;8.38;;;2.95;;
75937;SDS011;64615;32.062;34.834;2023-06-24T14:13:26;5.72;;;3.17;;
75937;SDS011;64615;32.062;34.834;2023-06-24T14:15:53;7.03;;;2.90;;
75937;SDS011;64615;32.062;34.834;2023-06-24T14:18:22;8.15;;;2.97;;
75937;SDS011;64615;32.062;34.834;2023-06-24T14:20:49;7.20;;;3.33;;
75937;SDS011;64615;32.062;34.834;2023-06-24T14:23:14;6.13;;;3.38;;
75937;SDS011;64615;32.062;34.834;2023-06-24T14:25:40;5.40;;;3.05;;
75937;SDS011;64615;32.062;34.834;2023-06-24T14:28:06;6.00;;;3.05;;
75937;SDS011;64615;32.062;34.834;2023-06-24T14:30:32;10.18;;;3.05;;
75937;SDS011;64615;32.062;34.834;2023-06-24T14:32:59;6.03;;;2.92;;
75937;SDS011;64615;32.062;34.834;2023-06-24T14:35:25;8.05;;;3.15;;
75937;SDS011;64615;32.062;34.834;2023-06-24T14:37:51;8.70;;;3.38;;
75937;SDS011;64615;32.062;34.834;2023-06-24T14:40:17;6.72;;;3.33;;
75937;SDS011;64615;32.062;34.834;2023-06-24T14:42:42;6.40;;;2.80;;
75937;SDS011;64615;32.062;34.834;2023-06-24T14:45:08;6.80;;;3.40;;
75937;SDS011;64615;32.062;34.834;2023-06-24T14:47:34;7.97;;;3.08;;